Time;durP1;ratioP1;P1;durP2;ratioP2;P2;SDS_P1;SDS_P2;PMS_P1;PMS_P2;Temp;Humidity;BMP_temperature;BMP_pressure;BME280_temperature;BME280_humidity;BME280_pressure;Samples;Min_cycle;Max_cycle;Signal;HPM_P1;HPM_P2
2022/09/29 00:01:08;;;;;;;0.80;0.50;;;8.60;99.90;;;;;;5055649;28;20459;-72
2022/09/29 00:03:37;;;;;;;1.70;0.60;;;8.60;99.90;;;;;;5057832;28;20453;-71
2022/09/29 00:06:04;;;;;;;0.97;0.60;;;8.70;99.90;;;;;;5055010;28;20483;-72
2022/09/29 00:08:31;;;;;;;1.10;0.70;;;8.70;99.90;;;;;;5057944;28;20454;-72
2022/09/29 00:10:58;;;;;;;3.33;0.70;;;8.70;99.90;;;;;;5054876;28;20455;-71
2022/09/29 00:13:26;;;;;;;1.30;0.53;;;8.70;99.90;;;;;;5057652;28;20451;-72
2022/09/29 00:15:58;;;;;;;2.57;0.63;;;8.80;99.90;;;;;;5054239;28;20877;-72
2022/09/29 00:18:25;;;;;;;1.00;0.60;;;8.90;99.90;;;;;;5057149;28;20902;-72
2022/09/29 00:21:00;;;;;;;3.27;0.80;;;9.00;99.90;;;;;;5053967;28;20452;-72
2022/09/29 00:23:28;;;;;;;1.00;0.60;;;9.00;99.90;;;;;;5057199;28;20457;-71
2022/09/29 00:26:02;;;;;;;0.70;0.50;;;9.00;99.90;;;;;;5054369;28;20931;-73
2022/09/29 00:28:32;;;;;;;1.30;0.50;;;8.90;99.90;;;;;;5057570;28;20533;-72
2022/09/29 00:31:02;;;;;;;0.90;0.60;;;8.90;99.90;;;;;;5053936;28;20550;-72
2022/09/29 00:33:31;;;;;;;1.07;0.67;;;8.90;99.90;;;;;;5057285;28;20443;-72
2022/09/29 00:35:59;;;;;;;1.10;0.60;;;8.90;99.90;;;;;;5054266;28;20910;-72
2022/09/29 00:38:27;;;;;;;0.87;0.50;;;9.00;99.90;;;;;;5057318;28;20546;-72
2022/09/29 00:40:54;;;;;;;2.03;0.50;;;9.00;99.90;;;;;;5054009;28;20911;-73
2022/09/29 00:43:23;;;;;;;1.47;0.60;;;9.10;99.90;;;;;;5056933;28;20509;-72
2022/09/29 00:45:54;;;;;;;0.80;0.50;;;9.10;99.90;;;;;;5054572;28;20518;-72
2022/09/29 00:48:28;;;;;;;0.83;0.50;;;9.20;99.90;;;;;;5056571;28;20447;-73
2022/09/29 00:50:56;;;;;;;1.33;0.60;;;9.20;99.90;;;;;;5054185;28;20949;-72
2022/09/29 00:53:24;;;;;;;0.90;0.60;;;9.20;99.90;;;;;;5056847;28;20454;-72
2022/09/29 00:55:55;;;;;;;1.20;0.57;;;9.30;99.90;;;;;;5054400;28;20546;-71
2022/09/29 00:58:28;;;;;;;7.43;0.50;;;9.30;99.90;;;;;;5056846;28;20454;-72
2022/09/29 01:00:57;;;;;;;0.97;0.50;;;9.30;99.90;;;;;;5053246;28;20457;-72
2022/09/29 01:03:28;;;;;;;1.43;0.50;;;9.30;99.90;;;;;;5056552;28;20538;-71
2022/09/29 01:05:58;;;;;;;0.90;0.60;;;9.30;99.90;;;;;;5054372;28;20773;-71
2022/09/29 01:08:28;;;;;;;2.50;0.60;;;9.20;99.90;;;;;;5056312;28;20443;-71
2022/09/29 01:10:57;;;;;;;1.03;0.50;;;9.20;99.90;;;;;;5053045;28;20451;-72
2022/09/29 01:13:24;;;;;;;1.37;0.60;;;9.10;99.90;;;;;;5056233;28;20455;-72
2022/09/29 01:15:51;;;;;;;1.43;0.63;;;9.10;99.90;;;;;;5054207;28;20814;-72
2022/09/29 01:18:19;;;;;;;3.03;0.50;;;9.00;99.90;;;;;;5056169;28;20447;-73
2022/09/29 01:20:56;;;;;;;1.30;0.60;;;9.00;99.90;;;;;;5053272;28;20463;-71
2022/09/29 01:24:02;;;;;;;1.77;0.40;;;9.00;99.90;;;;;;5056873;28;20450;-72
2022/09/29 01:27:09;;;;;;;1.07;0.50;;;9.00;99.90;;;;;;5027983;28;20486;-72
2022/09/29 01:30:08;;;;;;;1.13;0.50;;;9.00;99.90;;;;;;5056558;28;20883;-72
2022/09/29 01:33:14;;;;;;;0.70;0.50;;;9.10;99.90;;;;;;5053094;28;20490;-72
2022/09/29 01:35:52;;;;;;;0.80;0.40;;;9.00;99.90;;;;;;5053491;28;20974;-72
2022/09/29 01:38:31;;;;;;;1.00;0.70;;;9.00;99.90;;;;;;5055930;28;20566;-73
2022/09/29 01:41:06;;;;;;;1.67;0.50;;;9.10;99.90;;;;;;5053121;28;20778;-72
2022/09/29 01:43:36;;;;;;;0.60;0.40;;;9.20;99.90;;;;;;5056429;28;20893;-72
2022/09/29 01:46:08;;;;;;;0.93;0.43;;;9.30;99.90;;;;;;5053186;28;20495;-72
2022/09/29 01:48:40;;;;;;;0.90;0.50;;;9.30;99.90;;;;;;5056231;28;20867;-72
2022/09/29 01:51:12;;;;;;;2.80;0.60;;;9.30;99.90;;;;;;5052728;28;20455;-72
2022/09/29 01:53:44;;;;;;;0.77;0.50;;;9.40;99.90;;;;;;5056315;28;20447;-73
2022/09/29 01:56:16;;;;;;;0.97;0.50;;;9.40;99.90;;;;;;5052899;28;20451;-72
2022/09/29 01:58:52;;;;;;;0.90;0.50;;;9.40;99.90;;;;;;5056041;28;20502;-72
2022/09/29 02:01:21;;;;;;;1.50;0.43;;;9.40;99.90;;;;;;5052847;28;20455;-72
2022/09/29 02:03:55;;;;;;;0.90;0.60;;;9.30;99.90;;;;;;5055965;28;20458;-72
2022/09/29 02:06:25;;;;;;;0.63;0.50;;;9.20;99.90;;;;;;5052525;28;20593;-72
2022/09/29 02:08:55;;;;;;;1.30;0.50;;;9.30;99.90;;;;;;5055860;28;20451;-72
2022/09/29 02:11:22;;;;;;;1.53;0.50;;;9.30;99.90;;;;;;5054430;28;20459;-71
2022/09/29 02:13:54;;;;;;;1.33;0.60;;;9.40;99.90;;;;;;5055580;28;20451;-72
2022/09/29 02:16:26;;;;;;;0.70;0.43;;;9.40;99.90;;;;;;5052913;28;20769;-71
2022/09/29 02:18:58;;;;;;;0.80;0.50;;;9.40;99.90;;;;;;5055518;28;20452;-72
2022/09/29 02:21:26;;;;;;;2.07;0.50;;;9.30;99.90;;;;;;5053137;28;20455;-72
2022/09/29 02:23:53;;;;;;;0.90;0.47;;;9.30;99.90;;;;;;5056456;28;20434;-72
2022/09/29 02:26:20;;;;;;;0.80;0.50;;;9.40;99.90;;;;;;5055837;28;20497;-72
2022/09/29 02:28:47;;;;;;;1.40;0.60;;;9.30;99.90;;;;;;5059689;28;20550;-71
2022/09/29 02:31:14;;;;;;;1.00;0.50;;;9.20;99.90;;;;;;5056952;28;20455;-72
2022/09/29 02:33:41;;;;;;;0.70;0.40;;;9.20;99.90;;;;;;5059261;28;20955;-73
2022/09/29 02:36:22;;;;;;;0.70;0.50;;;9.20;99.90;;;;;;5055102;28;20454;-71
2022/09/29 02:38:57;;;;;;;1.83;0.60;;;9.30;99.90;;;;;;5058647;28;20714;-72
2022/09/29 02:41:40;;;;;;;0.73;0.40;;;9.30;99.90;;;;;;5054140;28;20573;-72
2022/09/29 02:44:42;;;;;;;0.80;0.40;;;9.30;99.90;;;;;;5057973;28;20610;-72
2022/09/29 02:47:24;;;;;;;0.60;0.50;;;9.30;99.90;;;;;;5042532;28;20490;-71
2022/09/29 02:50:05;;;;;;;1.20;0.50;;;9.40;99.90;;;;;;5059033;28;20454;-72
2022/09/29 02:52:43;;;;;;;1.07;0.60;;;9.30;99.90;;;;;;5056667;28;20451;-72
2022/09/29 02:55:17;;;;;;;0.80;0.47;;;9.30;99.90;;;;;;5059012;28;20451;-71
2022/09/29 02:57:50;;;;;;;1.30;0.50;;;9.30;99.90;;;;;;5055903;28;20532;-72
2022/09/29 03:00:19;;;;;;;1.00;0.50;;;9.30;99.90;;;;;;5058757;28;20454;-71
2022/09/29 03:02:46;;;;;;;0.90;0.50;;;9.40;99.90;;;;;;5059165;28;20746;-72
2022/09/29 03:05:15;;;;;;;1.10;0.47;;;9.40;99.90;;;;;;5058746;28;20443;-71
2022/09/29 03:07:43;;;;;;;0.70;0.50;;;9.50;99.90;;;;;;5056452;28;20842;-72
2022/09/29 03:10:11;;;;;;;1.17;0.50;;;9.50;99.90;;;;;;5058969;28;20443;-72
2022/09/29 03:12:39;;;;;;;1.10;0.60;;;9.50;99.90;;;;;;5055454;28;20451;-71
2022/09/29 03:15:07;;;;;;;0.80;0.60;;;9.50;99.90;;;;;;5058838;28;20443;-72
2022/09/29 03:17:34;;;;;;;0.80;0.47;;;9.50;99.90;;;;;;5055936;28;20458;-73
2022/09/29 03:20:01;;;;;;;0.80;0.50;;;9.50;99.90;;;;;;5059001;28;20546;-71
2022/09/29 03:22:28;;;;;;;0.77;0.50;;;9.50;99.90;;;;;;5055751;28;20451;-70
2022/09/29 03:24:56;;;;;;;0.80;0.40;;;9.50;99.90;;;;;;5058716;28;20759;-73
2022/09/29 03:27:23;;;;;;;1.13;0.40;;;9.40;99.90;;;;;;5055528;28;20958;-72
2022/09/29 03:29:50;;;;;;;0.70;0.40;;;9.50;99.90;;;;;;5058425;28;20451;-73
2022/09/29 03:32:17;;;;;;;1.10;0.47;;;9.40;99.90;;;;;;5054241;28;20443;-73
2022/09/29 03:34:44;;;;;;;1.03;0.50;;;9.40;99.90;;;;;;5058117;28;20448;-73
2022/09/29 03:37:11;;;;;;;1.10;0.50;;;9.30;99.90;;;;;;5054957;28;20554;-73
2022/09/29 03:39:38;;;;;;;0.90;0.47;;;9.30;99.90;;;;;;5058461;28;20521;-74
2022/09/29 03:42:06;;;;;;;1.17;0.40;;;9.20;99.90;;;;;;5055256;28;20945;-73
2022/09/29 03:44:33;;;;;;;0.80;0.43;;;9.20;99.90;;;;;;5057797;28;20534;-73
2022/09/29 03:47:00;;;;;;;0.80;0.50;;;9.20;99.90;;;;;;5054439;28;20483;-74
2022/09/29 03:49:27;;;;;;;1.60;0.53;;;9.20;99.90;;;;;;5058467;28;20460;-73
2022/09/29 03:51:54;;;;;;;1.00;0.50;;;9.20;99.90;;;;;;5054675;28;20903;-73
2022/09/29 03:54:23;;;;;;;0.67;0.40;;;9.10;99.90;;;;;;5058187;28;20538;-73
2022/09/29 03:56:50;;;;;;;1.37;0.40;;;9.10;99.90;;;;;;5054899;28;20960;-73
2022/09/29 03:59:18;;;;;;;0.83;0.50;;;9.00;99.90;;;;;;5057817;28;20836;-73
2022/09/29 04:01:45;;;;;;;0.93;0.30;;;9.10;99.90;;;;;;5054022;28;20460;-73
2022/09/29 04:04:11;;;;;;;0.90;0.47;;;9.20;99.90;;;;;;5058067;28;20717;-71
2022/09/29 04:06:38;;;;;;;0.70;0.50;;;9.10;99.90;;;;;;5056044;28;20487;-73
2022/09/29 04:09:05;;;;;;;0.97;0.50;;;9.20;99.90;;;;;;5057680;28;20894;-71
2022/09/29 04:11:32;;;;;;;0.60;0.40;;;9.20;99.90;;;;;;5052742;28;20551;-72
2022/09/29 04:13:59;;;;;;;5.80;0.57;;;9.20;99.90;;;;;;5054242;28;20453;-72
2022/09/29 04:16:27;;;;;;;1.43;0.60;;;9.20;99.90;;;;;;5055151;28;20750;-72
2022/09/29 04:18:54;;;;;;;0.90;0.50;;;9.20;99.90;;;;;;5055548;28;20879;-72
2022/09/29 04:21:21;;;;;;;1.00;0.50;;;9.20;99.90;;;;;;5052448;28;20455;-72
2022/09/29 04:23:48;;;;;;;4.00;0.60;;;9.20;99.90;;;;;;5055619;28;20450;-72
2022/09/29 04:26:15;;;;;;;0.60;0.40;;;9.30;99.90;;;;;;5051720;28;20898;-71
2022/09/29 04:28:42;;;;;;;0.83;0.53;;;9.30;99.90;;;;;;5055034;28;20883;-71
2022/09/29 04:31:09;;;;;;;0.80;0.50;;;9.30;99.90;;;;;;5049705;28;20549;-71
2022/09/29 04:33:38;;;;;;;1.40;0.60;;;9.20;99.90;;;;;;5054957;28;20535;-71
2022/09/29 04:36:05;;;;;;;0.67;0.43;;;9.20;99.90;;;;;;5051120;28;20894;-72
2022/09/29 04:38:32;;;;;;;0.83;0.60;;;9.10;99.90;;;;;;5055783;28;20819;-71
2022/09/29 04:40:59;;;;;;;0.80;0.50;;;9.00;99.90;;;;;;5053037;28;20526;-71
2022/09/29 04:43:26;;;;;;;0.73;0.60;;;9.00;99.90;;;;;;5055638;28;20435;-73
2022/09/29 04:45:53;;;;;;;0.90;0.50;;;9.00;99.90;;;;;;5053555;28;20546;-72
2022/09/29 04:48:20;;;;;;;0.70;0.43;;;8.90;99.90;;;;;;5056611;28;20788;-72
2022/09/29 04:50:50;;;;;;;0.93;0.60;;;9.00;99.90;;;;;;5053769;28;20828;-72
2022/09/29 04:53:17;;;;;;;1.53;0.57;;;8.90;99.90;;;;;;5056385;28;20467;-72
2022/09/29 04:55:44;;;;;;;1.53;0.50;;;8.90;99.90;;;;;;5053850;28;20894;-72
2022/09/29 04:58:11;;;;;;;1.40;0.40;;;8.90;99.90;;;;;;5055679;28;20447;-73
2022/09/29 05:00:37;;;;;;;1.23;0.60;;;9.00;99.90;;;;;;5053647;28;20448;-73
2022/09/29 05:03:04;;;;;;;1.03;0.50;;;9.00;99.90;;;;;;5054936;28;20444;-73
2022/09/29 05:05:31;;;;;;;0.90;0.47;;;8.90;99.90;;;;;;5050280;28;20522;-73
2022/09/29 05:08:02;;;;;;;1.40;0.60;;;8.80;99.90;;;;;;5053686;28;20577;-73
2022/09/29 05:10:30;;;;;;;0.80;0.50;;;8.70;99.90;;;;;;5052154;28;20478;-72
2022/09/29 05:12:57;;;;;;;1.00;0.70;;;8.70;99.90;;;;;;5055313;28;20458;-72
2022/09/29 05:15:23;;;;;;;0.70;0.50;;;8.60;99.90;;;;;;5055122;28;20457;-73
2022/09/29 05:17:50;;;;;;;0.70;0.50;;;8.50;99.90;;;;;;5051544;28;20451;-73
2022/09/29 05:20:17;;;;;;;1.00;0.50;;;8.50;99.90;;;;;;5054478;28;20486;-72
2022/09/29 05:22:44;;;;;;;1.03;0.70;;;8.60;99.90;;;;;;5051950;28;20466;-73
2022/09/29 05:25:12;;;;;;;0.90;0.60;;;8.60;99.90;;;;;;5056057;28;20613;-72
2022/09/29 05:27:39;;;;;;;0.90;0.50;;;8.70;99.90;;;;;;5051405;28;20478;-72
2022/09/29 05:30:07;;;;;;;1.30;0.50;;;8.80;99.90;;;;;;5053832;28;20461;-73
2022/09/29 05:32:34;;;;;;;1.17;0.50;;;8.90;99.90;;;;;;5050791;28;20505;-72
2022/09/29 05:35:01;;;;;;;1.53;0.50;;;8.90;99.90;;;;;;5055698;28;20448;-73
2022/09/29 05:37:28;;;;;;;0.73;0.50;;;8.90;99.90;;;;;;5050997;28;20448;-73
2022/09/29 05:39:55;;;;;;;0.90;0.60;;;8.90;99.90;;;;;;5054077;28;20475;-73
2022/09/29 05:42:24;;;;;;;1.27;0.60;;;8.90;99.90;;;;;;5050135;28;20479;-72
2022/09/29 05:44:51;;;;;;;1.00;0.60;;;8.90;99.90;;;;;;5054429;28;20471;-72
2022/09/29 05:47:18;;;;;;;0.80;0.60;;;8.90;99.90;;;;;;5055767;28;20497;-72
2022/09/29 05:49:45;;;;;;;0.80;0.60;;;8.90;99.90;;;;;;5053467;28;20486;-73
2022/09/29 05:52:15;;;;;;;1.03;0.60;;;8.80;99.90;;;;;;5054201;28;20719;-72
2022/09/29 05:54:42;;;;;;;1.80;0.70;;;8.80;99.90;;;;;;5053642;28;20483;-72
2022/09/29 05:57:09;;;;;;;0.87;0.60;;;8.80;99.90;;;;;;5054616;28;20444;-72
2022/09/29 05:59:37;;;;;;;1.30;0.80;;;8.90;99.90;;;;;;5055091;28;20467;-72
2022/09/29 06:02:04;;;;;;;11.60;5.57;;;9.10;99.90;;;;;;5058872;28;20530;-73
2022/09/29 06:04:30;;;;;;;1.63;0.90;;;9.40;99.90;;;;;;5059648;28;20757;-72
2022/09/29 06:07:00;;;;;;;2.07;1.87;;;9.50;99.90;;;;;;5058917;28;20955;-72
2022/09/29 06:09:26;;;;;;;1.90;1.43;;;9.40;99.90;;;;;;5055878;28;20451;-73
2022/09/29 06:11:53;;;;;;;3.30;1.40;;;9.30;99.90;;;;;;5057334;28;20466;-72
2022/09/29 06:14:20;;;;;;;3.60;1.60;;;9.20;99.90;;;;;;5054770;28;20562;-72
2022/09/29 06:16:48;;;;;;;2.73;1.00;;;9.20;99.90;;;;;;5057551;28;20447;-73
2022/09/29 06:19:15;;;;;;;1.50;0.90;;;9.10;99.90;;;;;;5053976;28;20455;-73
2022/09/29 06:21:42;;;;;;;2.03;1.03;;;9.00;99.90;;;;;;5056973;28;20578;-72
2022/09/29 06:24:09;;;;;;;2.30;0.83;;;9.00;99.90;;;;;;5053763;28;20459;-71
2022/09/29 06:26:36;;;;;;;3.20;0.90;;;8.90;99.90;;;;;;5051644;28;20450;-71
2022/09/29 06:29:03;;;;;;;1.20;0.90;;;8.90;99.90;;;;;;5054014;28;20574;-72
2022/09/29 06:31:31;;;;;;;2.10;0.93;;;9.00;99.90;;;;;;5056686;28;20450;-71
2022/09/29 06:34:00;;;;;;;1.97;1.00;;;9.20;99.90;;;;;;5053651;28;21110;-72
2022/09/29 06:39:16;;;;;;;5.63;0.90;;;9.40;99.90;;;;;;5034364;28;20451;-73
2022/09/29 06:41:47;;;;;;;6.45;1.00;;;9.50;99.90;;;;;;5056489;28;20455;-72
2022/09/29 06:44:14;;;;;;;5.77;0.90;;;9.60;99.90;;;;;;5053483;28;20569;-72
2022/09/29 06:46:41;;;;;;;1.33;0.80;;;9.60;99.90;;;;;;5056382;28;20754;-72
2022/09/29 06:49:12;;;;;;;1.17;0.73;;;9.40;99.90;;;;;;5054402;28;20487;-71
2022/09/29 06:51:38;;;;;;;1.40;0.60;;;9.30;99.90;;;;;;5054384;28;20477;-70
2022/09/29 06:54:05;;;;;;;0.90;0.63;;;9.30;99.90;;;;;;5053387;28;20879;-69
2022/09/29 06:56:32;;;;;;;1.37;0.60;;;9.30;99.90;;;;;;5055578;28;20452;-70
2022/09/29 06:58:59;;;;;;;1.40;0.80;;;9.30;99.90;;;;;;5053118;28;20450;-69
2022/09/29 07:01:26;;;;;;;1.20;0.70;;;9.30;99.90;;;;;;5055792;28;20454;-70
2022/09/29 07:03:53;;;;;;;3.73;0.80;;;9.30;99.90;;;;;;5047016;28;20462;-70
2022/09/29 07:06:21;;;;;;;1.57;0.80;;;9.30;99.90;;;;;;5055932;28;20447;-70
2022/09/29 07:08:53;;;;;;;1.23;0.77;;;9.30;99.90;;;;;;5057637;28;20493;-70
2022/09/29 07:11:20;;;;;;;2.70;0.70;;;9.30;99.90;;;;;;5053513;28;20455;-70
2022/09/29 07:13:47;;;;;;;2.13;0.80;;;9.30;99.90;;;;;;5056138;28;20455;-70
2022/09/29 07:16:14;;;;;;;1.10;0.70;;;9.20;99.90;;;;;;5051257;28;20455;-70
2022/09/29 07:18:42;;;;;;;1.50;0.80;;;9.30;99.90;;;;;;5055374;28;20454;-71
2022/09/29 07:21:11;;;;;;;1.60;1.00;;;9.40;99.90;;;;;;5051613;28;20917;-70
2022/09/29 07:23:41;;;;;;;2.07;0.80;;;9.50;99.90;;;;;;5055529;28;20461;-70
2022/09/29 07:26:08;;;;;;;1.57;0.80;;;9.60;99.90;;;;;;5053060;28;20478;-70
2022/09/29 07:28:35;;;;;;;3.80;0.83;;;9.70;99.90;;;;;;5056535;28;21157;-71
2022/09/29 07:31:07;;;;;;;1.27;0.70;;;9.70;99.90;;;;;;5053208;28;20462;-72
2022/09/29 07:33:34;;;;;;;5.13;0.80;;;9.70;99.90;;;;;;5057245;28;20453;-72
2022/09/29 07:36:01;;;;;;;1.40;0.70;;;9.70;99.90;;;;;;5058151;28;20486;-72
2022/09/29 07:38:28;;;;;;;1.07;0.70;;;9.80;99.90;;;;;;5057464;28;20562;-72
2022/09/29 07:40:59;;;;;;;1.13;0.70;;;9.90;99.90;;;;;;5053490;28;20483;-72
2022/09/29 07:43:27;;;;;;;1.27;0.80;;;10.00;99.90;;;;;;5056684;28;20542;-72
2022/09/29 07:45:55;;;;;;;2.43;0.70;;;10.10;99.90;;;;;;5052875;28;20546;-72
2022/09/29 07:48:22;;;;;;;0.90;0.70;;;10.10;99.90;;;;;;5057034;28;20482;-72
2022/09/29 07:50:49;;;;;;;1.57;0.77;;;10.10;99.90;;;;;;5055745;28;20458;-72
2022/09/29 07:53:16;;;;;;;1.30;0.70;;;10.10;99.90;;;;;;5056178;28;20875;-72
2022/09/29 07:55:42;;;;;;;1.17;0.73;;;10.20;99.90;;;;;;5054030;28;20482;-72
2022/09/29 07:58:11;;;;;;;1.30;0.60;;;10.30;99.90;;;;;;5057594;28;20451;-72
2022/09/29 08:00:38;;;;;;;1.47;0.90;;;10.40;99.90;;;;;;5052935;28;20868;-72
2022/09/29 08:03:09;;;;;;;1.97;0.70;;;10.40;99.90;;;;;;5056709;28;21379;-72
2022/09/29 08:05:36;;;;;;;1.40;0.90;;;10.50;99.90;;;;;;5054409;28;20455;-72
2022/09/29 08:08:04;;;;;;;2.03;0.77;;;10.80;99.90;;;;;;5056197;28;20541;-72
2022/09/29 08:10:32;;;;;;;1.30;0.63;;;10.90;99.90;;;;;;5053027;28;20904;-71
2022/09/29 08:12:59;;;;;;;1.27;0.67;;;11.10;98.60;;;;;;5057175;28;20578;-72
2022/09/29 08:15:27;;;;;;;1.20;0.70;;;11.10;91.60;;;;;;5053068;28;20840;-72
2022/09/29 08:17:55;;;;;;;1.10;0.70;;;11.10;89.50;;;;;;5054757;28;20474;-72
2022/09/29 08:20:25;;;;;;;1.37;0.70;;;11.20;85.60;;;;;;5052207;28;20537;-71
2022/09/29 08:22:55;;;;;;;1.20;0.70;;;11.20;91.00;;;;;;5066556;28;20447;-71
2022/09/29 08:25:24;;;;;;;3.63;0.97;;;11.10;91.60;;;;;;5052133;28;20460;-70
2022/09/29 08:27:51;;;;;;;2.07;0.80;;;11.10;93.90;;;;;;5056917;28;20475;-70
2022/09/29 08:30:19;;;;;;;1.30;0.80;;;11.10;96.50;;;;;;5051732;28;20482;-71
2022/09/29 08:32:52;;;;;;;1.50;0.80;;;11.20;93.90;;;;;;5054444;28;20443;-70
2022/09/29 08:35:19;;;;;;;1.00;0.70;;;11.30;82.70;;;;;;5050934;28;20455;-70
2022/09/29 08:37:47;;;;;;;1.13;0.70;;;11.40;77.70;;;;;;5054306;28;20471;-70
2022/09/29 08:40:14;;;;;;;2.20;0.80;;;11.50;72.50;;;;;;5051887;28;20517;-70
2022/09/29 08:42:50;;;;;;;1.20;0.70;;;11.60;57.60;;;;;;5053841;28;20479;-71
2022/09/29 08:45:26;;;;;;;0.90;0.50;;;11.70;62.80;;;;;;5054404;28;20521;-70
2022/09/29 08:48:04;;;;;;;0.80;0.60;;;11.80;44.50;;;;;;5055274;28;20494;-70
2022/09/29 08:50:35;;;;;;;4.40;0.70;;;11.80;43.80;;;;;;5050777;28;20887;-71
2022/09/29 08:53:06;;;;;;;1.30;0.70;;;11.80;39.40;;;;;;5055938;28;20443;-71
2022/09/29 08:55:41;;;;;;;0.80;0.60;;;11.80;44.30;;;;;;5052076;28;20451;-71
2022/09/29 08:58:12;;;;;;;1.37;0.70;;;11.80;46.60;;;;;;5054152;28;20454;-70
2022/09/29 09:00:47;;;;;;;0.80;0.60;;;11.90;45.40;;;;;;5051091;28;20907;-71
2022/09/29 09:03:31;;;;;;;1.10;0.60;;;11.90;44.50;;;;;;5055444;28;20859;-71
2022/09/29 09:06:14;;;;;;;1.67;0.60;;;12.10;36.10;;;;;;5032044;28;20467;-71
2022/09/29 09:09:07;;;;;;;0.90;0.70;;;12.20;26.80;;;;;;5035384;28;20563;-72
2022/09/29 09:11:50;;;;;;;0.97;0.60;;;12.40;25.30;;;;;;5044228;28;20460;-71
2022/09/29 09:14:32;;;;;;;1.30;0.53;;;12.50;1.00;;;;;;5035236;28;20462;-71
2022/09/29 09:17:14;;;;;;;1.03;0.70;;;12.70;8.90;;;;;;5045702;28;20742;-71
2022/09/29 09:19:57;;;;;;;0.90;0.60;;;13.00;1.00;;;;;;5050487;28;21132;-71
2022/09/29 09:22:27;;;;;;;1.50;0.57;;;13.30;1.00;;;;;;5055144;28;20435;-71
2022/09/29 09:24:57;;;;;;;1.53;0.50;;;13.30;1.00;;;;;;5051935;28;20541;-71
2022/09/29 09:27:27;;;;;;;0.77;0.40;;;13.40;1.00;;;;;;5055212;28;20538;-72
2022/09/29 09:30:05;;;;;;;0.93;0.50;;;13.60;1.00;;;;;;5052558;28;20488;-72
2022/09/29 09:32:37;;;;;;;1.30;0.67;;;13.70;1.00;;;;;;5054552;28;20436;-72
2022/09/29 09:35:20;;;;;;;1.60;0.60;;;13.70;1.00;;;;;;5046656;28;20448;-72
2022/09/29 09:37:48;;;;;;;2.60;0.70;;;13.40;1.00;;;;;;5054645;28;20460;-72
2022/09/29 09:40:19;;;;;;;0.90;0.70;;;12.90;1.00;;;;;;5052246;28;20281;-72
2022/09/29 09:42:54;;;;;;;0.70;0.40;;;13.00;1.00;;;;;;5054825;28;20517;-72
2022/09/29 09:45:29;;;;;;;1.40;0.40;;;13.10;1.00;;;;;;5056423;28;20769;-72
2022/09/29 09:48:01;;;;;;;0.60;0.40;;;13.10;1.00;;;;;;5052925;28;20470;-72
2022/09/29 09:50:30;;;;;;;4.43;0.50;;;13.40;1.00;;;;;;5053057;28;20445;-72
2022/09/29 09:53:01;;;;;;;0.50;0.40;;;13.70;1.00;;;;;;5052309;28;20455;-72
2022/09/29 09:55:33;;;;;;;0.87;0.40;;;13.80;1.00;;;;;;5054653;28;20447;-72
2022/09/29 09:58:11;;;;;;;0.77;0.43;;;13.70;1.00;;;;;;5055815;28;20786;-72
2022/09/29 10:00:42;;;;;;;0.90;0.50;;;13.90;1.00;;;;;;5055145;28;20453;-72
2022/09/29 10:03:11;;;;;;;4.30;0.70;;;14.00;1.00;;;;;;5052493;28;20455;-72
2022/09/29 10:05:44;;;;;;;1.10;0.40;;;14.00;1.00;;;;;;5054602;28;20941;-73
2022/09/29 10:08:23;;;;;;;1.10;0.50;;;13.70;1.00;;;;;;5048562;28;20452;-71
2022/09/29 10:10:50;;;;;;;1.83;0.87;;;13.50;1.00;;;;;;5055174;28;20455;-72
2022/09/29 10:13:17;;;;;;;0.60;0.40;;;13.50;1.00;;;;;;5054219;28;20953;-72
2022/09/29 10:15:48;;;;;;;1.20;0.30;;;13.70;1.00;;;;;;5054764;28;20431;-71
2022/09/29 10:18:20;;;;;;;1.20;0.60;;;13.80;1.00;;;;;;5052200;28;20527;-71
2022/09/29 10:20:51;;;;;;;0.70;0.40;;;13.80;1.00;;;;;;5053533;28;20447;-71
2022/09/29 10:23:34;;;;;;;1.03;0.30;;;13.70;1.00;;;;;;5054111;28;20463;-70
2022/09/29 10:26:08;;;;;;;0.70;0.30;;;13.70;1.00;;;;;;5055003;28;20483;-72
2022/09/29 10:28:42;;;;;;;0.60;0.30;;;14.00;1.00;;;;;;5051596;28;20491;-71
2022/09/29 10:31:22;;;;;;;0.60;0.37;;;14.30;1.00;;;;;;5055441;28;20585;-71
2022/09/29 10:33:52;;;;;;;0.70;0.40;;;14.50;99.90;;;;;;5054778;28;20459;-71
2022/09/29 10:36:22;;;;;;;0.60;0.40;;;14.30;1.00;;;;;;5053930;28;20884;-73
2022/09/29 10:38:52;;;;;;;0.70;0.40;;;14.50;99.90;;;;;;5054432;28;20822;-71
2022/09/29 10:41:19;;;;;;;12.23;7.87;;;14.90;1.00;;;;;;5055206;28;20466;-73
2022/09/29 10:43:51;;;;;;;1.10;0.50;;;15.20;1.00;;;;;;5056141;28;20455;-72
2022/09/29 10:46:36;;;;;;;0.83;0.40;;;15.60;1.00;;;;;;5057733;28;20448;-71
2022/09/29 10:49:13;;;;;;;0.70;0.37;;;15.50;99.90;;;;;;5054392;28;20471;-71
2022/09/29 10:51:42;;;;;;;1.17;0.43;;;15.40;1.00;;;;;;5055907;28;20470;-71
2022/09/29 10:54:10;;;;;;;2.00;0.50;;;15.20;1.00;;;;;;5054738;28;20505;-72
2022/09/29 10:56:47;;;;;;;0.63;0.30;;;15.30;1.00;;;;;;5057751;28;20905;-71
2022/09/29 10:59:20;;;;;;;0.43;0.30;;;15.10;1.00;;;;;;5054620;28;20451;-72
2022/09/29 11:01:50;;;;;;;0.88;0.40;;;15.00;1.00;;;;;;5051313;28;20491;-71
2022/09/29 11:04:22;;;;;;;1.80;0.40;;;15.00;1.00;;;;;;5062966;28;20206;-70
2022/09/29 11:06:52;;;;;;;0.60;0.30;;;15.10;99.90;;;;;;5078271;28;20446;-71
2022/09/29 11:09:38;;;;;;;0.83;0.40;;;15.10;99.90;;;;;;5053163;28;20224;-71
2022/09/29 11:12:31;;;;;;;0.70;0.40;;;15.30;1.00;;;;;;5055192;28;20451;-71
2022/09/29 11:14:59;;;;;;;0.50;0.30;;;15.50;1.00;;;;;;5052351;28;20199;-72
2022/09/29 11:17:29;;;;;;;0.80;0.40;;;15.70;1.00;;;;;;5054918;28;20941;-71
2022/09/29 11:19:59;;;;;;;0.70;0.40;;;15.70;99.90;;;;;;5054060;28;20439;-72
2022/09/29 11:22:55;;;;;;;1.10;0.30;;;15.80;1.00;;;;;;5055645;28;20436;-72
2022/09/29 11:25:54;;;;;;;0.90;0.40;;;15.80;1.00;;;;;;5032239;28;20449;-71
2022/09/29 11:28:41;;;;;;;0.50;0.30;;;15.60;1.00;;;;;;5034371;28;20201;-71
2022/09/29 11:31:27;;;;;;;0.50;0.30;;;15.50;1.00;;;;;;5036597;28;20534;-71
2022/09/29 11:34:05;;;;;;;1.27;0.30;;;15.30;1.00;;;;;;5039544;28;20871;-71
2022/09/29 11:36:41;;;;;;;0.60;0.37;;;14.90;16.50;;;;;;5050556;28;20944;-70
2022/09/29 11:39:30;;;;;;;0.77;0.40;;;14.90;99.90;;;;;;5033955;28;20652;-71
2022/09/29 11:42:17;;;;;;;0.80;0.30;;;14.70;1.00;;;;;;5053749;28;20533;-72
2022/09/29 11:44:58;;;;;;;0.95;0.50;;;14.90;99.90;;;;;;5037052;28;20452;-72
2022/09/29 11:47:53;;;;;;;0.60;0.30;;;15.20;1.00;;;;;;5058307;28;20446;-71
2022/09/29 11:50:31;;;;;;;0.53;0.30;;;15.50;1.00;;;;;;5053665;28;20574;-71
2022/09/29 11:53:18;;;;;;;0.70;0.40;;;15.80;1.00;;;;;;5058437;28;20470;-71
2022/09/29 11:55:57;;;;;;;0.60;0.40;;;15.90;1.00;;;;;;5056273;28;20542;-72
2022/09/29 11:58:40;;;;;;;0.77;0.40;;;15.80;99.90;;;;;;5054579;28;20534;-70
2022/09/29 12:01:38;;;;;;;2.30;0.40;;;15.80;1.00;;;;;;5057198;28;20798;-70
2022/09/29 12:04:21;;;;;;;1.93;0.90;;;15.50;1.00;;;;;;5077634;28;20443;-70
2022/09/29 12:06:56;;;;;;;5.97;3.97;;;15.10;93.90;;;;;;5057465;28;20452;-72
2022/09/29 12:09:55;;;;;;;0.60;0.40;;;15.00;1.00;;;;;;5035776;28;20544;-71
2022/09/29 12:12:42;;;;;;;2.00;0.50;;;15.00;99.90;;;;;;5055457;28;20439;-70
2022/09/29 12:15:24;;;;;;;0.40;0.30;;;15.10;99.90;;;;;;5051649;28;20546;-71
2022/09/29 12:17:56;;;;;;;0.57;0.30;;;15.30;99.90;;;;;;5056718;28;20787;-71
2022/09/29 12:20:27;;;;;;;0.80;0.40;;;15.30;99.90;;;;;;5035074;28;20465;-72
2022/09/29 12:22:57;;;;;;;0.60;0.30;;;15.20;99.90;;;;;;5054922;28;20447;-71
2022/09/29 12:25:26;;;;;;;0.53;0.33;;;15.20;99.90;;;;;;5048975;28;20447;-70
2022/09/29 12:28:01;;;;;;;1.03;0.30;;;15.40;99.90;;;;;;5054109;28;20511;-70
2022/09/29 12:30:34;;;;;;;0.60;0.30;;;15.20;1.00;;;;;;5051621;28;20471;-72
2022/09/29 12:33:05;;;;;;;2.73;0.40;;;15.20;1.00;;;;;;5054544;28;20447;-71
2022/09/29 12:35:38;;;;;;;0.50;0.30;;;15.50;1.00;;;;;;5050676;28;20452;-72
2022/09/29 12:38:17;;;;;;;1.13;0.30;;;15.50;1.00;;;;;;5053315;28;20457;-72
2022/09/29 12:40:48;;;;;;;1.70;0.33;;;15.60;1.00;;;;;;5039999;28;20445;-71
2022/09/29 12:43:22;;;;;;;2.10;0.40;;;15.50;1.00;;;;;;5051194;28;20542;-74
2022/09/29 12:45:56;;;;;;;1.80;0.30;;;15.50;14.40;;;;;;5056662;28;20443;-72
2022/09/29 12:48:35;;;;;;;0.70;0.40;;;15.30;99.90;;;;;;5053062;28;20518;-72
2022/09/29 12:51:10;;;;;;;0.50;0.20;;;15.40;1.00;;;;;;5055352;28;20479;-71
2022/09/29 12:53:43;;;;;;;0.87;0.40;;;15.30;99.90;;;;;;5052031;28;20530;-71
2022/09/29 12:56:14;;;;;;;0.97;0.30;;;15.10;1.00;;;;;;5053043;28;20448;-71
2022/09/29 12:58:46;;;;;;;1.00;0.30;;;14.90;1.00;;;;;;5051333;28;20462;-71
2022/09/29 13:01:22;;;;;;;2.90;0.37;;;14.90;1.00;;;;;;5054914;28;20483;-72
2022/09/29 13:04:19;;;;;;;0.70;0.30;;;15.00;99.90;;;;;;5050892;28;20961;-72
2022/09/29 13:07:34;;;;;;;0.63;0.30;;;15.20;1.00;;;;;;5035611;28;20736;-72
2022/09/29 13:10:27;;;;;;;0.77;0.30;;;15.30;1.00;;;;;;5050866;28;20490;-71
2022/09/29 13:13:29;;;;;;;0.60;0.30;;;15.10;1.00;;;;;;5037069;28;20834;-73
2022/09/29 13:16:06;;;;;;;0.60;0.30;;;15.10;99.90;;;;;;5007386;28;20451;-72
2022/09/29 13:18:46;;;;;;;0.53;0.30;;;14.90;99.90;;;;;;5029813;28;20435;-72
2022/09/29 13:21:24;;;;;;;0.50;0.20;;;14.90;1.00;;;;;;5033944;28;20432;-71
2022/09/29 13:24:24;;;;;;;0.50;0.30;;;14.90;1.00;;;;;;5032069;28;20551;-72